Time;durP1;ratioP1;P1;durP2;ratioP2;P2;SDS_P1;SDS_P2;PMS_P1;PMS_P2;Temp;Humidity;BMP_temperature;BMP_pressure;BME280_temperature;BME280_humidity;BME280_pressure;Samples;Min_cycle;Max_cycle;Signal;HPM_P1;HPM_P2
2021/11/18 00:00:51;;;;;;;18.92;10.60;;;8.60;99.90;;;;;;5067957;28;20056;-72
2021/11/18 00:03:56;;;;;;;16.15;8.80;;;8.50;99.90;;;;;;5070657;28;20051;-72
2021/11/18 00:07:01;;;;;;;18.73;9.60;;;8.50;99.90;;;;;;5066101;28;20494;-72
2021/11/18 00:10:05;;;;;;;18.63;9.50;;;8.50;99.90;;;;;;5068025;28;20056;-72
2021/11/18 00:13:12;;;;;;;21.75;12.50;;;8.50;99.90;;;;;;5057313;28;20031;-72
2021/11/18 00:16:16;;;;;;;22.08;11.98;;;8.50;99.90;;;;;;5063412;28;20035;-72
2021/11/18 00:19:21;;;;;;;18.75;12.20;;;8.40;99.90;;;;;;5057708;28;20399;-72
2021/11/18 00:22:25;;;;;;;16.35;10.88;;;8.50;99.90;;;;;;5057260;28;20076;-72
2021/11/18 00:25:29;;;;;;;23.02;12.75;;;8.50;99.90;;;;;;5072574;28;20047;-72
2021/11/18 00:28:35;;;;;;;21.00;11.65;;;8.50;99.90;;;;;;5063353;28;20494;-72
2021/11/18 00:31:39;;;;;;;20.38;12.63;;;8.40;99.90;;;;;;5067230;28;20060;-72
2021/11/18 00:34:45;;;;;;;22.85;13.65;;;8.40;99.90;;;;;;5060340;28;20048;-72
2021/11/18 00:37:50;;;;;;;22.00;12.60;;;8.50;99.90;;;;;;5060831;28;20392;-72
2021/11/18 00:40:55;;;;;;;22.55;14.15;;;8.50;99.90;;;;;;5062472;28;20043;-72
2021/11/18 00:43:59;;;;;;;23.00;14.95;;;8.50;99.90;;;;;;5062736;28;20044;-72
2021/11/18 00:47:03;;;;;;;27.55;15.27;;;8.40;99.90;;;;;;5063089;28;20059;-72
2021/11/18 00:50:09;;;;;;;33.22;19.88;;;8.40;99.90;;;;;;5068355;28;20044;-72
2021/11/18 00:53:15;;;;;;;44.92;22.15;;;8.50;99.90;;;;;;5059555;28;20051;-72
2021/11/18 00:56:22;;;;;;;38.13;21.00;;;8.50;99.90;;;;;;5052889;28;20056;-72
2021/11/18 00:59:26;;;;;;;37.85;21.08;;;8.40;99.90;;;;;;5061965;28;20043;-72
2021/11/18 01:02:32;;;;;;;34.78;20.48;;;8.40;99.90;;;;;;5066844;28;20415;-72
2021/11/18 01:05:40;;;;;;;28.65;17.30;;;8.40;99.90;;;;;;5047021;28;20052;-72
2021/11/18 01:08:46;;;;;;;38.05;21.10;;;8.30;99.90;;;;;;5052271;28;20060;-72
2021/11/18 01:11:49;;;;;;;43.70;22.60;;;8.30;99.90;;;;;;5064238;28;20039;-72
2021/11/18 01:14:57;;;;;;;34.65;20.75;;;8.30;99.90;;;;;;5059036;28;20499;-72
2021/11/18 01:18:03;;;;;;;36.25;22.13;;;8.30;99.90;;;;;;5062233;28;20052;-72
2021/11/18 01:21:07;;;;;;;37.60;21.63;;;8.40;99.90;;;;;;5064530;28;20494;-72
2021/11/18 01:24:13;;;;;;;35.40;21.08;;;8.40;99.90;;;;;;5058680;28;20399;-72
2021/11/18 01:27:45;;;;;;;34.23;19.73;;;8.30;99.90;;;;;;5059573;28;20039;-72
2021/11/18 01:30:57;;;;;;;32.47;18.90;;;8.20;99.90;;;;;;5067893;28;20044;-72
2021/11/18 01:34:03;;;;;;;31.27;19.20;;;8.20;99.90;;;;;;5059264;28;20044;-72
2021/11/18 01:37:11;;;;;;;32.75;18.83;;;8.10;99.90;;;;;;5054327;28;20037;-72
2021/11/18 01:40:20;;;;;;;24.10;14.50;;;8.10;99.90;;;;;;5057661;28;20035;-72
2021/11/18 01:43:29;;;;;;;24.60;15.52;;;8.10;99.90;;;;;;5058404;28;20047;-72
2021/11/18 01:46:36;;;;;;;24.95;13.77;;;8.10;99.90;;;;;;5058205;28;20060;-72
2021/11/18 01:49:50;;;;;;;21.77;14.20;;;8.20;99.90;;;;;;5061998;28;20521;-72
2021/11/18 01:52:56;;;;;;;26.92;13.88;;;8.30;99.90;;;;;;5058802;28;20040;-72
2021/11/18 01:56:11;;;;;;;20.77;12.77;;;8.30;99.90;;;;;;5067701;28;20044;-72
2021/11/18 01:59:26;;;;;;;23.92;13.48;;;8.30;99.90;;;;;;5060065;28;20064;-72
2021/11/18 02:02:49;;;;;;;21.40;12.70;;;8.20;99.90;;;;;;5067295;28;20047;-72
2021/11/18 02:06:01;;;;;;;27.85;16.10;;;8.10;99.90;;;;;;5060825;28;20048;-72
2021/11/18 02:09:11;;;;;;;28.05;17.50;;;8.00;99.90;;;;;;5061692;28;20039;-72
2021/11/18 02:12:18;;;;;;;33.67;17.92;;;8.00;99.90;;;;;;5061676;28;20040;-72
2021/11/18 02:15:47;;;;;;;30.35;18.40;;;8.00;99.90;;;;;;5057873;28;20815;-72
2021/11/18 02:18:51;;;;;;;30.38;16.83;;;7.90;99.90;;;;;;5058554;28;20051;-72
2021/11/18 02:21:55;;;;;;;23.10;14.60;;;7.80;99.90;;;;;;5061092;28;20049;-72
2021/11/18 02:25:09;;;;;;;26.42;15.70;;;7.70;99.90;;;;;;5064938;28;20051;-72
2021/11/18 02:28:13;;;;;;;30.67;18.50;;;7.60;99.90;;;;;;5053579;28;20044;-72
2021/11/18 02:31:39;;;;;;;29.10;17.42;;;7.70;99.90;;;;;;5060308;28;20039;-72
2021/11/18 02:35:09;;;;;;;25.85;14.70;;;7.70;99.90;;;;;;5052406;28;20047;-71
2021/11/18 02:38:16;;;;;;;22.75;13.65;;;7.80;99.90;;;;;;5059213;28;20446;-72
2021/11/18 02:41:22;;;;;;;20.38;11.63;;;7.70;99.90;;;;;;5055201;28;20047;-72
2021/11/18 02:44:29;;;;;;;20.23;10.90;;;7.60;99.90;;;;;;5057365;28;20047;-71
2021/11/18 02:47:33;;;;;;;23.95;12.73;;;7.60;99.90;;;;;;5058105;28;20051;-72
2021/11/18 02:50:39;;;;;;;24.52;12.80;;;7.60;99.90;;;;;;5057547;28;20052;-71
2021/11/18 02:53:44;;;;;;;22.75;12.27;;;7.60;99.90;;;;;;5063113;28;20043;-71
2021/11/18 02:56:48;;;;;;;26.50;13.70;;;7.60;99.90;;;;;;5058840;28;20051;-72
2021/11/18 02:59:52;;;;;;;20.73;12.95;;;7.60;99.90;;;;;;5067713;28;20047;-72
2021/11/18 03:02:56;;;;;;;23.25;14.05;;;7.60;99.90;;;;;;5071178;28;20044;-72
2021/11/18 03:06:00;;;;;;;28.35;13.63;;;7.60;99.90;;;;;;5064778;28;20051;-72
2021/11/18 03:09:05;;;;;;;24.55;12.93;;;7.60;99.90;;;;;;5051140;28;20552;-72
2021/11/18 03:12:08;;;;;;;24.88;13.73;;;7.70;99.90;;;;;;5065306;28;20407;-72
2021/11/18 03:15:14;;;;;;;25.02;13.90;;;7.70;99.90;;;;;;5061012;28;20036;-72
2021/11/18 03:18:22;;;;;;;24.88;14.52;;;7.70;99.90;;;;;;5060665;28;20391;-72
2021/11/18 03:21:27;;;;;;;24.67;13.60;;;7.80;99.90;;;;;;5061009;28;20044;-72
2021/11/18 03:24:34;;;;;;;24.13;13.60;;;7.80;99.90;;;;;;5060890;28;20055;-71
2021/11/18 03:27:43;;;;;;;20.25;12.20;;;7.80;99.90;;;;;;5060773;28;20040;-71
2021/11/18 03:30:48;;;;;;;19.67;12.63;;;7.90;99.90;;;;;;5063962;28;20374;-72
2021/11/18 03:34:01;;;;;;;20.27;12.70;;;7.80;99.90;;;;;;5062922;28;20048;-72
2021/11/18 03:37:05;;;;;;;19.90;11.88;;;7.70;99.90;;;;;;5072326;28;20063;-72
2021/11/18 03:40:11;;;;;;;21.92;11.27;;;7.70;99.90;;;;;;5065278;28;20040;-72
2021/11/18 03:43:19;;;;;;;25.17;12.50;;;7.60;99.90;;;;;;5063804;28;20406;-72
2021/11/18 03:46:28;;;;;;;19.55;11.98;;;7.60;99.90;;;;;;5055418;28;20059;-72
2021/11/18 03:49:33;;;;;;;20.33;11.70;;;7.60;99.90;;;;;;5060068;28;20206;-72
2021/11/18 03:52:38;;;;;;;21.13;12.15;;;7.50;99.90;;;;;;5062926;28;20043;-72
2021/11/18 03:55:42;;;;;;;20.85;12.50;;;7.30;99.90;;;;;;5060479;28;20399;-72
2021/11/18 03:58:46;;;;;;;19.80;12.52;;;7.20;99.90;;;;;;5062878;28;20273;-72
2021/11/18 04:01:53;;;;;;;23.17;13.13;;;7.20;99.90;;;;;;5069986;28;20048;-72
2021/11/18 04:05:02;;;;;;;22.35;13.05;;;7.00;99.90;;;;;;5069142;28;20055;-72
2021/11/18 04:08:17;;;;;;;25.77;16.33;;;7.00;99.90;;;;;;5062259;28;20052;-72
2021/11/18 04:11:21;;;;;;;25.98;15.75;;;6.90;99.90;;;;;;5065708;28;20044;-72
2021/11/18 04:14:25;;;;;;;29.65;13.00;;;6.90;99.90;;;;;;5060343;28;20055;-72
2021/11/18 04:17:29;;;;;;;25.25;13.07;;;7.00;99.90;;;;;;5058924;28;20047;-72
2021/11/18 04:20:35;;;;;;;32.88;16.95;;;7.00;99.90;;;;;;5064111;28;20055;-71
2021/11/18 04:23:42;;;;;;;33.70;18.52;;;7.20;99.90;;;;;;5059990;28;20060;-71
2021/11/18 04:26:47;;;;;;;37.35;17.83;;;7.40;99.90;;;;;;5065946;28;20043;-72
2021/11/18 04:29:51;;;;;;;44.10;20.95;;;7.60;99.90;;;;;;5068607;28;20044;-71
2021/11/18 04:32:55;;;;;;;47.55;20.92;;;7.80;99.90;;;;;;5065460;28;20053;-72
2021/11/18 04:36:01;;;;;;;30.27;18.52;;;7.80;99.90;;;;;;5052589;28;20048;-72
2021/11/18 04:39:07;;;;;;;27.63;16.88;;;7.80;99.90;;;;;;5064220;28;20040;-71
2021/11/18 04:42:13;;;;;;;36.85;18.17;;;7.60;99.90;;;;;;5069355;28;20039;-71
2021/11/18 04:45:25;;;;;;;35.28;18.05;;;7.50;99.90;;;;;;5047413;28;20040;-71
2021/11/18 04:48:34;;;;;;;32.13;18.23;;;7.60;99.90;;;;;;5058138;28;20048;-72
2021/11/18 04:51:38;;;;;;;33.17;17.83;;;7.60;99.90;;;;;;5056272;28;20545;-71
2021/11/18 04:54:44;;;;;;;32.00;17.38;;;7.60;99.90;;;;;;5065749;28;20043;-71
2021/11/18 04:57:49;;;;;;;32.80;17.08;;;7.70;99.90;;;;;;5060042;28;20064;-72
2021/11/18 05:00:56;;;;;;;33.95;16.67;;;7.70;99.90;;;;;;5058332;28;20047;-71
2021/11/18 05:04:08;;;;;;;27.30;15.80;;;7.60;99.90;;;;;;5059736;28;20035;-72
2021/11/18 05:07:12;;;;;;;29.95;15.50;;;7.60;99.90;;;;;;5062666;28;20040;-71
2021/11/18 05:10:18;;;;;;;37.13;15.90;;;7.50;99.90;;;;;;5059003;28;20059;-71
2021/11/18 05:13:26;;;;;;;302.90;26.92;;;7.30;99.90;;;;;;5058935;28;20040;-71
2021/11/18 05:16:34;;;;;;;220.15;24.40;;;7.00;99.90;;;;;;5058894;28;20040;-72
2021/11/18 05:19:38;;;;;;;37.28;12.95;;;6.80;99.90;;;;;;5058678;28;20411;-71
2021/11/18 05:22:43;;;;;;;21.48;11.93;;;6.60;99.90;;;;;;5059625;28;20056;-71
2021/11/18 05:25:52;;;;;;;27.33;12.98;;;6.60;99.90;;;;;;5067961;28;20506;-71
2021/11/18 05:28:56;;;;;;;24.50;13.70;;;6.50;99.90;;;;;;5068510;28;20052;-72
2021/11/18 05:32:00;;;;;;;25.55;12.48;;;6.60;99.90;;;;;;5060084;28;20056;-71
2021/11/18 05:35:27;;;;;;;20.63;12.75;;;6.60;99.90;;;;;;5064685;28;20052;-71
2021/11/18 05:38:30;;;;;;;22.15;12.15;;;6.60;99.90;;;;;;5058831;28;20530;-71
2021/11/18 05:51:06;;;;;;;20.98;12.70;;;7.20;99.90;;;;;;5055429;28;20036;-71
2021/11/18 05:54:12;;;;;;;327.63;30.67;;;7.10;99.90;;;;;;5059367;28;20395;-71
2021/11/18 05:57:16;;;;;;;52.83;14.80;;;7.00;99.90;;;;;;5062070;28;20059;-71
2021/11/18 06:00:26;;;;;;;26.80;12.43;;;7.00;99.90;;;;;;5057682;28;20051;-71
2021/11/18 06:03:32;;;;;;;23.98;13.50;;;6.90;99.90;;;;;;5058121;28;20044;-71
2021/11/18 06:06:38;;;;;;;25.05;13.07;;;6.80;99.90;;;;;;5061909;28;20131;-72
2021/11/18 06:09:42;;;;;;;26.67;14.45;;;6.80;99.90;;;;;;5065870;28;20430;-71
2021/11/18 06:12:49;;;;;;;24.73;14.63;;;6.70;99.90;;;;;;5062898;28;20111;-72
2021/11/18 06:16:04;;;;;;;28.85;15.05;;;6.70;99.90;;;;;;5059712;28;20040;-71
2021/11/18 06:19:08;;;;;;;26.45;15.23;;;6.70;99.90;;;;;;5055057;28;20043;-72
2021/11/18 06:22:14;;;;;;;33.50;16.77;;;6.70;99.90;;;;;;5057507;28;20056;-71
2021/11/18 06:25:39;;;;;;;27.98;16.75;;;6.80;99.90;;;;;;5057330;28;20055;-71
2021/11/18 06:28:43;;;;;;;31.75;18.15;;;6.90;99.90;;;;;;5065985;28;20047;-71
2021/11/18 06:31:53;;;;;;;41.40;20.90;;;6.90;99.90;;;;;;5058379;28;20044;-71
2021/11/18 06:34:58;;;;;;;37.67;20.85;;;7.10;99.90;;;;;;5063783;28;20043;-72
2021/11/18 06:38:03;;;;;;;32.45;18.58;;;7.30;99.90;;;;;;5059103;28;20071;-71
2021/11/18 06:41:08;;;;;;;40.75;19.52;;;7.30;99.90;;;;;;5061682;28;20048;-71
2021/11/18 06:44:12;;;;;;;38.72;20.55;;;7.50;99.90;;;;;;5057514;28;20047;-71
2021/11/18 06:47:18;;;;;;;37.90;22.73;;;7.90;99.90;;;;;;5062355;28;20047;-71
2021/11/18 06:50:25;;;;;;;25.63;16.83;;;9.90;99.90;;;;;;5058240;28;20047;-72
2021/11/18 06:53:39;;;;;;;26.13;14.32;;;11.90;99.90;;;;;;5060176;28;20043;-72
2021/11/18 06:56:43;;;;;;;13.77;9.20;;;13.30;99.90;;;;;;5068961;28;20435;-72
2021/11/18 06:59:48;;;;;;;23.55;12.55;;;14.10;99.90;;;;;;5063690;28;20048;-72
2021/11/18 07:02:52;;;;;;;18.52;10.13;;;15.30;99.90;;;;;;5058610;28;20079;-72
2021/11/18 07:05:57;;;;;;;17.05;10.90;;;16.60;99.90;;;;;;5060835;28;20043;-72
2021/11/18 07:09:04;;;;;;;234.82;15.90;;;15.30;99.90;;;;;;5057883;28;20060;-72
2021/11/18 07:12:14;;;;;;;15.02;11.02;;;13.80;99.90;;;;;;5060471;28;20079;-72
2021/11/18 07:15:18;;;;;;;11.45;7.82;;;14.70;99.90;;;;;;5055080;28;20056;-72
2021/11/18 07:18:23;;;;;;;10.95;6.50;;;16.60;99.90;;;;;;5054225;28;20452;-72
2021/11/18 07:21:27;;;;;;;8.10;5.63;;;18.00;99.90;;;;;;5062441;28;20490;-72
2021/11/18 07:24:31;;;;;;;5.63;4.57;;;20.30;99.90;;;;;;5058016;28;20040;-72
2021/11/18 07:27:37;;;;;;;7.43;5.65;;;21.90;99.90;;;;;;5060188;28;20047;-72
2021/11/18 07:30:47;;;;;;;8.13;5.53;;;22.90;99.90;;;;;;5059074;28;20506;-73
2021/11/18 07:33:53;;;;;;;7.50;5.63;;;24.00;99.20;;;;;;5058976;28;20498;-72
2021/11/18 07:36:56;;;;;;;8.18;5.13;;;24.20;98.10;;;;;;5057052;28;20317;-72
2021/11/18 07:40:07;;;;;;;7.57;5.50;;;25.30;96.90;;;;;;5057949;28;20052;-73
2021/11/18 07:43:14;;;;;;;9.10;4.90;;;26.00;95.20;;;;;;5057858;28;20392;-72
2021/11/18 07:46:31;;;;;;;6.53;4.50;;;27.10;94.80;;;;;;5061132;28;20052;-73
2021/11/18 07:49:43;;;;;;;6.25;4.55;;;27.60;91.90;;;;;;5058199;28;20052;-73
2021/11/18 07:52:49;;;;;;;5.53;4.70;;;27.60;91.10;;;;;;5062788;28;20047;-73
2021/11/18 07:55:55;;;;;;;7.75;4.50;;;28.00;91.00;;;;;;5068959;28;20043;-73
2021/11/18 07:59:02;;;;;;;6.05;4.63;;;29.00;91.50;;;;;;5057340;28;20032;-73
2021/11/18 08:02:09;;;;;;;5.75;4.65;;;29.70;88.00;;;;;;5062583;28;20032;-73
2021/11/18 08:05:14;;;;;;;5.72;4.30;;;30.00;90.20;;;;;;5065556;28;20082;-73
2021/11/18 08:08:18;;;;;;;6.05;3.47;;;30.20;87.10;;;;;;5066157;28;20055;-73
2021/11/18 08:11:29;;;;;;;2.60;2.30;;;23.90;88.70;;;;;;5060262;28;20044;-72
2021/11/18 08:14:36;;;;;;;4.28;2.65;;;21.00;96.10;;;;;;5061787;28;20491;-72
2021/11/18 08:17:40;;;;;;;8.65;2.90;;;22.90;92.30;;;;;;5060585;28;20051;-73
2021/11/18 08:20:46;;;;;;;11.32;3.08;;;20.30;95.00;;;;;;5065138;28;20502;-73
2021/11/18 08:23:50;;;;;;;3.22;2.53;;;20.50;95.00;;;;;;5064952;28;20047;-72
2021/11/18 08:27:00;;;;;;;3.28;2.80;;;23.40;93.40;;;;;;5062847;28;20043;-73
2021/11/18 08:30:14;;;;;;;4.60;3.20;;;25.40;91.30;;;;;;5061888;28;20051;-72
2021/11/18 08:33:23;;;;;;;6.10;3.22;;;27.30;90.00;;;;;;5054192;28;20040;-73
2021/11/18 08:36:27;;;;;;;7.80;3.42;;;28.70;87.50;;;;;;5060026;28;20047;-73
2021/11/18 08:39:37;;;;;;;5.18;3.78;;;27.70;87.10;;;;;;5060842;28;20048;-73
2021/11/18 08:42:44;;;;;;;4.53;3.58;;;27.70;85.80;;;;;;5064067;28;20051;-73
2021/11/18 08:45:48;;;;;;;4.32;2.70;;;29.30;84.80;;;;;;5059432;28;20505;-74
2021/11/18 08:48:58;;;;;;;4.90;2.50;;;29.40;84.30;;;;;;5062786;28;20509;-73
2021/11/18 08:52:10;;;;;;;2.03;1.85;;;30.30;83.40;;;;;;5060952;28;20506;-73
2021/11/18 08:55:30;;;;;;;2.33;1.95;;;28.30;86.20;;;;;;5061254;28;20036;-73
2021/11/18 08:58:39;;;;;;;1.98;1.88;;;26.80;86.60;;;;;;5059131;28;20052;-72
2021/11/18 09:02:00;;;;;;;2.28;1.90;;;26.20;85.20;;;;;;5058340;28;20048;-72
2021/11/18 09:05:14;;;;;;;2.03;1.50;;;27.90;84.30;;;;;;5060453;28;20038;-72
2021/11/18 09:08:20;;;;;;;4.90;2.25;;;29.00;83.70;;;;;;5059553;28;20051;-72
2021/11/18 09:11:30;;;;;;;;;;;26.50;84.70;;;;;;5058079;28;20044;-72
2021/11/18 09:14:36;;;;;;;4.78;3.25;;;26.10;83.80;;;;;;5065152;28;19908;-73
2021/11/18 09:17:41;;;;;;;4.50;3.00;;;25.90;85.00;;;;;;5060315;28;20119;-74
2021/11/18 09:20:58;;;;;;;4.40;3.20;;;27.60;85.40;;;;;;5057635;28;20052;-72
2021/11/18 09:24:19;;;;;;;4.30;3.75;;;25.70;87.20;;;;;;5057966;28;20047;-72
2021/11/18 09:27:28;;;;;;;5.82;3.80;;;28.50;82.80;;;;;;5056094;28;20495;-73
2021/11/18 09:30:37;;;;;;;5.97;4.30;;;30.80;81.10;;;;;;5053091;28;20043;-73
2021/11/18 09:33:43;;;;;;;9.75;4.60;;;28.30;82.00;;;;;;5060691;28;20051;-72
2021/11/18 09:36:48;;;;;;;6.32;4.57;;;26.90;84.40;;;;;;5060060;28;20044;-72
2021/11/18 09:39:53;;;;;;;3.35;3.05;;;28.20;83.40;;;;;;5058794;28;20505;-72
2021/11/18 09:43:38;;;;;;;3.90;3.25;;;25.90;86.10;;;;;;5060607;28;20055;-72
2021/11/18 09:47:01;;;;;;;4.63;4.07;;;27.70;86.30;;;;;;5064549;28;20044;-72
2021/11/18 09:50:17;;;;;;;8.27;3.75;;;30.40;82.10;;;;;;5060842;28;20039;-73
2021/11/18 09:54:22;;;;;;;4.85;4.18;;;31.30;80.30;;;;;;5062895;28;20525;-73
2021/11/18 09:57:47;;;;;;;6.50;3.40;;;32.30;78.30;;;;;;5065725;28;20043;-73
2021/11/18 10:01:12;;;;;;;7.57;3.83;;;29.30;79.90;;;;;;5066812;28;20482;-73
2021/11/18 10:04:41;;;;;;;6.18;4.03;;;27.40;81.70;;;;;;5060146;28;20494;-73
2021/11/18 10:07:53;;;;;;;4.95;3.78;;;26.50;84.80;;;;;;5060907;28;20379;-73
2021/11/18 10:11:20;;;;;;;4.78;4.10;;;27.10;85.50;;;;;;5059676;28;20047;-73
2021/11/18 10:14:43;;;;;;;7.00;4.15;;;25.30;88.10;;;;;;5058025;28;20108;-73
2021/11/18 10:18:15;;;;;;;5.70;4.15;;;23.80;90.60;;;;;;5058239;28;20056;-72
2021/11/18 10:21:31;;;;;;;5.43;4.28;;;24.80;90.10;;;;;;5059769;28;20048;-72
2021/11/18 10:24:39;;;;;;;7.72;4.15;;;28.00;84.60;;;;;;5060590;28;20043;-72
2021/11/18 10:27:54;;;;;;;5.07;3.67;;;28.30;83.80;;;;;;5060494;28;20036;-72
2021/11/18 10:31:09;;;;;;;6.93;3.92;;;28.20;84.10;;;;;;5063827;28;20075;-72
2021/11/18 10:34:17;;;;;;;4.53;3.70;;;27.70;85.30;;;;;;5065308;28;20047;-73
2021/11/18 10:37:33;;;;;;;6.85;4.55;;;27.20;87.30;;;;;;5063245;28;20039;-72
2021/11/18 10:40:51;;;;;;;5.97;4.20;;;26.10;87.40;;;;;;5057141;28;20387;-72
2021/11/18 10:44:27;;;;;;;4.90;4.20;;;26.00;88.60;;;;;;5056980;28;20052;-72
2021/11/18 10:47:57;;;;;;;5.63;4.18;;;27.00;86.70;;;;;;5059354;28;20052;-73
2021/11/18 10:51:11;;;;;;;4.93;4.38;;;26.90;86.80;;;;;;5058793;28;20039;-72
2021/11/18 10:54:17;;;;;;;8.65;5.47;;;28.30;84.60;;;;;;5057022;28;20043;-72
2021/11/18 10:57:23;;;;;;;5.85;4.47;;;27.20;85.40;;;;;;5060481;28;20047;-72
2021/11/18 11:00:43;;;;;;;6.00;5.30;;;29.10;86.40;;;;;;5061343;28;20059;-72
2021/11/18 11:03:49;;;;;;;10.85;5.90;;;28.80;84.30;;;;;;5053726;28;20424;-72
2021/11/18 11:06:53;;;;;;;7.43;6.43;;;30.80;82.80;;;;;;5060512;28;20040;-73
2021/11/18 11:09:57;;;;;;;7.55;4.93;;;32.30;80.10;;;;;;5060780;28;20039;-73
2021/11/18 11:13:16;;;;;;;7.72;5.10;;;31.20;79.00;;;;;;5055515;28;20039;-72
2021/11/18 11:16:32;;;;;;;6.68;4.00;;;32.30;79.30;;;;;;5063568;28;20073;-73
2021/11/18 11:19:42;;;;;;;4.35;3.95;;;27.30;78.80;;;;;;5057075;28;20411;-73
2021/11/18 11:22:53;;;;;;;5.00;4.50;;;28.60;80.60;;;;;;5071288;28;20044;-72
2021/11/18 11:26:39;;;;;;;7.60;4.10;;;28.20;79.80;;;;;;5060774;28;20040;-72
2021/11/18 11:29:53;;;;;;;6.35;4.55;;;25.50;87.10;;;;;;5065764;28;20051;-72
2021/11/18 11:32:58;;;;;;;5.45;4.60;;;26.60;86.40;;;;;;5068592;28;20047;-74
2021/11/18 11:36:12;;;;;;;5.55;4.40;;;28.20;84.30;;;;;;5064847;28;20055;-72
2021/11/18 11:39:42;;;;;;;5.57;4.40;;;28.00;84.30;;;;;;5064774;28;20052;-73
2021/11/18 11:43:24;;;;;;;6.10;4.60;;;27.50;83.60;;;;;;5059471;28;20124;-72
2021/11/18 11:46:31;;;;;;;5.55;3.65;;;27.00;83.90;;;;;;5065833;28;20047;-72
2021/11/18 11:49:46;;;;;;;6.85;4.63;;;29.90;83.60;;;;;;5064348;28;20039;-72
2021/11/18 11:53:21;;;;;;;7.50;4.60;;;28.50;82.70;;;;;;5062507;28;20031;-72
2021/11/18 11:56:41;;;;;;;9.43;5.00;;;28.80;84.30;;;;;;5070073;28;20056;-72
2021/11/18 11:59:56;;;;;;;5.90;4.47;;;25.60;89.00;;;;;;5065408;28;20056;-72
2021/11/18 12:03:18;;;;;;;8.13;5.18;;;26.00;89.60;;;;;;5064349;28;20048;-72
2021/11/18 12:06:30;;;;;;;6.80;4.03;;;28.60;84.50;;;;;;5062359;28;20039;-72
2021/11/18 12:10:08;;;;;;;6.60;4.22;;;23.90;88.80;;;;;;5066829;28;20043;-72
2021/11/18 12:13:20;;;;;;;9.88;5.00;;;23.70;90.60;;;;;;5061426;28;20048;-72
2021/11/18 12:16:30;;;;;;;7.03;4.53;;;23.50;90.80;;;;;;5063661;28;20036;-72
2021/11/18 12:19:49;;;;;;;6.90;3.97;;;24.10;91.00;;;;;;5061470;28;20069;-72
2021/11/18 12:23:03;;;;;;;5.03;3.70;;;26.10;88.10;;;;;;5064668;28;20401;-72
2021/11/18 12:26:16;;;;;;;7.53;4.03;;;27.00;86.80;;;;;;5067491;28;20059;-72
2021/11/18 12:29:41;;;;;;;4.78;3.50;;;28.80;84.30;;;;;;5065427;28;20044;-72
2021/11/18 12:33:09;;;;;;;5.68;3.90;;;25.20;85.00;;;;;;5066217;28;20043;-72
2021/11/18 12:36:54;;;;;;;5.50;3.75;;;27.20;86.70;;;;;;5062005;28;20494;-72
2021/11/18 12:40:24;;;;;;;4.88;3.55;;;29.50;83.00;;;;;;5049637;28;20407;-72
2021/11/18 12:43:31;;;;;;;4.18;3.33;;;27.30;83.50;;;;;;5061915;28;20043;-72
2021/11/18 12:47:08;;;;;;;7.10;4.05;;;28.20;84.60;;;;;;5066651;28;20505;-72
2021/11/18 12:50:33;;;;;;;6.30;4.30;;;28.80;81.60;;;;;;5057866;28;20039;-72
2021/11/18 12:53:41;;;;;;;4.32;3.85;;;27.10;83.20;;;;;;5057889;28;20507;-72
2021/11/18 12:56:48;;;;;;;8.93;3.72;;;25.60;87.10;;;;;;5062354;28;20047;-72
2021/11/18 12:59:57;;;;;;;4.03;3.33;;;27.00;86.60;;;;;;5060943;28;20047;-72
2021/11/18 13:03:03;;;;;;;4.18;3.25;;;26.70;85.10;;;;;;5058483;28;20051;-72
2021/11/18 13:06:07;;;;;;;4.10;3.13;;;27.70;84.30;;;;;;5068383;28;20036;-72
2021/11/18 13:09:14;;;;;;;4.75;3.88;;;27.90;83.00;;;;;;5061123;28;20384;-72
2021/11/18 13:12:27;;;;;;;4.60;3.60;;;27.80;84.00;;;;;;5056619;28;20048;-72
2021/11/18 13:18:28;;;;;;;3.88;3.20;;;29.00;84.30;;;;;;5136534;27;20442;-47
2021/11/18 13:22:03;;;;;;;6.63;3.35;;;30.70;81.30;;;;;;5129055;27;20035;-52
2021/11/18 13:25:16;;;;;;;4.55;3.60;;;31.60;79.10;;;;;;5130162;27;20023;-49
2021/11/18 13:28:47;;;;;;;6.75;4.18;;;27.30;80.40;;;;;;5133377;27;20032;-52
2021/11/18 13:32:05;;;;;;;5.17;3.80;;;24.00;87.30;;;;;;5130898;27;20378;-49
2021/11/18 13:35:16;;;;;;;8.70;4.53;;;23.80;90.60;;;;;;5139146;27;20640;-49
2021/11/18 13:38:23;;;;;;;6.75;3.63;;;25.10;88.80;;;;;;5145663;27;20039;-50
2021/11/18 13:41:51;;;;;;;4.97;4.13;;;26.50;86.50;;;;;;5145079;27;20409;-50
2021/11/18 13:45:26;;;;;;;4.47;3.53;;;25.10;86.90;;;;;;5135048;27;20039;-51
2021/11/18 13:48:41;;;;;;;6.80;3.97;;;26.50;87.00;;;;;;5139778;27;20031;-51
2021/11/18 13:51:53;;;;;;;7.03;4.80;;;25.90;86.90;;;;;;5141922;27;20382;-51
2021/11/18 13:55:26;;;;;;;7.35;4.15;;;23.90;90.50;;;;;;5132145;27;20027;-48
2021/11/18 13:59:08;;;;;;;6.20;4.20;;;22.60;92.60;;;;;;5134058;27;20046;-52
2021/11/18 14:02:18;;;;;;;5.50;3.45;;;23.90;92.30;;;;;;5136589;27;20027;-52
2021/11/18 14:05:30;;;;;;;6.15;4.30;;;25.30;89.90;;;;;;5138366;27;20039;-50
2021/11/18 14:08:41;;;;;;;5.15;4.15;;;26.00;90.30;;;;;;5137857;27;20039;-51
2021/11/18 14:11:52;;;;;;;4.32;3.85;;;26.70;89.60;;;;;;5144151;27;20476;-49
2021/11/18 14:15:30;;;;;;;4.50;3.85;;;26.40;85.90;;;;;;5134054;27;20036;-52
2021/11/18 14:18:36;;;;;;;7.55;3.97;;;25.40;88.80;;;;;;5128725;27;20402;-48
2021/11/18 14:22:06;;;;;;;6.45;3.85;;;25.40;90.50;;;;;;5138600;27;20031;-50
2021/11/18 14:25:37;;;;;;;3.90;3.35;;;26.80;90.20;;;;;;5135228;27;20046;-51
2021/11/18 14:28:51;;;;;;;5.97;3.90;;;28.00;87.20;;;;;;5127424;27;20027;-51
2021/11/18 14:32:09;;;;;;;4.60;3.75;;;28.10;85.70;;;;;;5128423;27;20028;-49
2021/11/18 14:35:31;;;;;;;5.90;3.70;;;28.10;85.50;;;;;;5129234;27;20027;-51
2021/11/18 14:38:46;;;;;;;7.75;3.97;;;27.90;85.80;;;;;;5121624;27;20040;-46
2021/11/18 14:42:15;;;;;;;4.57;3.65;;;26.30;86.30;;;;;;5123991;27;20027;-52
2021/11/18 14:45:29;;;;;;;5.93;4.35;;;26.30;87.50;;;;;;5131132;27;20386;-49
2021/11/18 14:48:52;;;;;;;5.68;3.28;;;26.50;86.50;;;;;;5129700;27;20043;-51
2021/11/18 14:52:29;;;;;;;5.28;3.50;;;26.70;86.20;;;;;;5125091;27;20031;-52
2021/11/18 14:55:39;;;;;;;5.40;4.03;;;26.70;87.70;;;;;;5123722;27;20031;-52
2021/11/18 14:58:43;;;;;;;6.32;4.40;;;26.20;88.60;;;;;;5129232;27;20039;-50
2021/11/18 15:02:10;;;;;;;5.22;4.00;;;25.90;90.30;;;;;;5129753;27;20031;-50
2021/11/18 15:05:14;;;;;;;8.57;3.97;;;25.60;89.80;;;;;;5126679;27;20027;-51
2021/11/18 15:08:18;;;;;;;5.18;3.75;;;25.30;89.90;;;;;;5127803;27;20027;-50
2021/11/18 15:11:26;;;;;;;11.13;4.47;;;24.80;90.80;;;;;;5128290;27;20035;-53
2021/11/18 15:14:31;;;;;;;6.35;4.85;;;24.30;91.60;;;;;;5122786;27;20034;-47
2021/11/18 15:17:39;;;;;;;8.00;4.40;;;23.70;91.90;;;;;;5121020;27;20031;-49
2021/11/18 15:20:47;;;;;;;6.00;4.97;;;23.00;93.20;;;;;;5122132;27;20039;-51
2021/11/18 15:23:51;;;;;;;8.00;5.75;;;21.70;94.60;;;;;;5132587;27;20035;-52
2021/11/18 15:26:57;;;;;;;11.00;5.82;;;20.70;96.10;;;;;;5130840;27;20031;-49
2021/11/18 15:30:04;;;;;;;15.07;6.75;;;19.50;98.60;;;;;;5130951;27;20050;-50
2021/11/18 15:33:10;;;;;;;10.50;6.35;;;19.00;99.90;;;;;;5132781;27;20042;-52
2021/11/18 15:36:16;;;;;;;12.20;6.90;;;18.50;99.90;;;;;;5129417;27;20396;-54
2021/11/18 15:39:21;;;;;;;9.30;6.53;;;18.10;99.90;;;;;;5121992;27;20042;-53
2021/11/18 15:42:25;;;;;;;11.40;6.30;;;17.70;99.90;;;;;;5132825;27;20381;-49
2021/11/18 15:45:30;;;;;;;9.73;6.50;;;17.30;99.90;;;;;;5130836;27;20038;-51
2021/11/18 15:48:34;;;;;;;10.80;6.70;;;17.00;99.90;;;;;;5124807;27;20043;-51
2021/11/18 15:51:40;;;;;;;12.02;6.82;;;16.70;99.90;;;;;;5119427;27;20046;-54
2021/11/18 15:54:45;;;;;;;10.73;6.80;;;16.30;99.90;;;;;;5124520;27;20043;-52
2021/11/18 15:57:51;;;;;;;12.95;8.70;;;15.90;99.90;;;;;;5122052;27;20047;-50
2021/11/18 16:00:59;;;;;;;12.57;7.45;;;15.70;99.90;;;;;;5122440;27;20042;-51
2021/11/18 16:04:05;;;;;;;13.85;7.80;;;15.50;99.90;;;;;;5111801;28;20043;-52
2021/11/18 16:07:12;;;;;;;11.73;7.68;;;15.40;99.90;;;;;;5111755;28;20046;-48
2021/11/18 16:10:23;;;;;;;13.88;8.48;;;15.20;99.90;;;;;;5111177;28;20043;-51
2021/11/18 16:13:29;;;;;;;44.03;27.38;;;15.10;99.90;;;;;;5111889;28;20047;-45
2021/11/18 16:16:34;;;;;;;20.48;13.00;;;14.90;99.90;;;;;;5112574;27;20059;-52
2021/11/18 16:19:39;;;;;;;16.85;10.85;;;14.80;99.90;;;;;;5117308;27;20042;-49
2021/11/18 16:22:11;;;;;;;22.98;11.32;;;14.70;99.90;;;;;;5064298;23;20041;-70
2021/11/18 16:25:18;;;;;;;24.63;16.40;;;14.60;99.90;;;;;;5030765;28;20519;-70
2021/11/18 16:28:23;;;;;;;13.68;8.63;;;14.50;99.90;;;;;;5030341;28;20388;-70
2021/11/18 16:31:31;;;;;;;14.07;10.55;;;14.30;99.90;;;;;;5030609;28;20049;-70
2021/11/18 16:34:37;;;;;;;15.32;9.80;;;14.10;99.90;;;;;;5030249;28;20514;-70
2021/11/18 16:37:41;;;;;;;29.15;20.60;;;13.90;99.90;;;;;;5030184;28;20051;-70